Aviation Digital Data Service (ADDS)

Output produced by METARs form (0807 UTC 20 March 2019)
found at http://www.aviationweather.gov/metar/data/
 
Forecast for: UUDL (YAROSLAV , RU)
Text: TAF UUDL 200455Z 2006/2106 25005MPS 6000 OVC010
Forecast period: 0600 UTC 20 March 2019 to 0600 UTC 21 March 2019
Forecast type: FROM: standard forecast or significant change
Winds: from the WSW (250 degrees) at 12 MPH (10 knots; 5.1 m/s)
Visibility: 4 miles (6 km)
Ceiling: 1000 feet AGL
Clouds: overcast cloud deck at 1000 feet AGL
Weather: no significant weather forecast for this period
Text: TEMPO 2006/2015 20005MPS 1700 RASN BR OVC005
Forecast period: 0600 to 1500 UTC 20 March 2019
Forecast type: TEMPORARY: The following changes expected for less than half the time period
Winds: from the SSW (200 degrees) at 12 MPH (10 knots; 5.1 m/s)
Visibility: 1.06 miles (1.71 km)
Ceiling: 500 feet AGL
Clouds: overcast cloud deck at 500 feet AGL
Weather: RA SN BR  (moderate rain, moderate snow, mist)